ISR4A LLBG-LCPH
Flight info
| Callsign | ISR4A |
|---|---|
| Flight time | 0h 44m |
| Altitude | 22000 |
| Route | DAFNA W13 VELOX M42 ESERI |
| Aircraft | A20N/M-SDE2E3FGHIRWXY/LB1 |
Departure
| Time | 2026-04-22 12:36 |
|---|---|
| Airport | Ben Gurion International Airport (LLBG) |
Arrival
| Time | 2026-04-22 13:21 |
|---|---|
| Airport | Paphos International Airport (LCPH) |
| Time | Latitude | Longitude | Altitude | Speed | Heading |
|---|---|---|---|---|---|
| 2026-04-22 12:16 | 32.00632 | 34.87205 | 120 ft | 0 kts | 228° |
| 2026-04-22 12:26 | 32.00640 | 34.87215 | 115 ft | 2 kts | 227° |
| 2026-04-22 12:26 | 32.00651 | 34.87230 | 115 ft | 2 kts | 228° |
| 2026-04-22 12:26 | 32.00662 | 34.87244 | 119 ft | 2 kts | 228° |
| 2026-04-22 12:27 | 32.00673 | 34.87259 | 115 ft | 2 kts | 228° |
| 2026-04-22 12:27 | 32.00684 | 34.87273 | 117 ft | 2 kts | 227° |
| 2026-04-22 12:27 | 32.00695 | 34.87287 | 116 ft | 2 kts | 224° |
| 2026-04-22 12:27 | 32.00708 | 34.87300 | 118 ft | 2 kts | 202° |
| 2026-04-22 12:28 | 32.00724 | 34.87302 | 117 ft | 2 kts | 147° |
| 2026-04-22 12:28 | 32.00735 | 34.87288 | 118 ft | 2 kts | 109° |
| 2026-04-22 12:28 | 32.00739 | 34.87269 | 116 ft | 2 kts | 91° |
| 2026-04-22 12:28 | 32.00738 | 34.87255 | 118 ft | 1 kts | 79° |
| 2026-04-22 12:29 | 32.00738 | 34.87253 | 117 ft | 0 kts | 78° |
| 2026-04-22 12:29 | 32.00739 | 34.87260 | 118 ft | 3 kts | 77° |
| 2026-04-22 12:30 | 32.00819 | 34.87373 | 118 ft | 14 kts | 69° |
| 2026-04-22 12:30 | 32.00777 | 34.87498 | 119 ft | 20 kts | 120° |
| 2026-04-22 12:30 | 32.00691 | 34.87661 | 116 ft | 27 kts | 121° |
| 2026-04-22 12:31 | 32.00593 | 34.87850 | 118 ft | 23 kts | 117° |
| 2026-04-22 12:31 | 32.00603 | 34.87926 | 116 ft | 14 kts | 46° |
| 2026-04-22 12:31 | 32.00627 | 34.87948 | 116 ft | 0 kts | 34° |
| 2026-04-22 12:31 | 32.00665 | 34.87976 | 117 ft | 10 kts | 32° |
| 2026-04-22 12:32 | 32.00741 | 34.88031 | 116 ft | 15 kts | 31° |
| 2026-04-22 12:32 | 32.00928 | 34.88166 | 119 ft | 23 kts | 33° |
| 2026-04-22 12:32 | 32.01074 | 34.88269 | 119 ft | 26 kts | 30° |
| 2026-04-22 12:33 | 32.01237 | 34.88388 | 120 ft | 28 kts | 34° |
| 2026-04-22 12:33 | 32.01379 | 34.88544 | 117 ft | 27 kts | 50° |
| 2026-04-22 12:33 | 32.01469 | 34.88730 | 118 ft | 27 kts | 68° |
| 2026-04-22 12:33 | 32.01513 | 34.88942 | 118 ft | 27 kts | 79° |
| 2026-04-22 12:34 | 32.01563 | 34.89149 | 118 ft | 23 kts | 33° |
| 2026-04-22 12:34 | 32.01723 | 34.89124 | 116 ft | 25 kts | 322° |
| 2026-04-22 12:34 | 32.01736 | 34.89015 | 117 ft | 0 kts | 259° |
| 2026-04-22 12:35 | 32.01712 | 34.88855 | 121 ft | 52 kts | 259° |
| 2026-04-22 12:35 | 32.01611 | 34.88187 | 118 ft | 111 kts | 259° |
| 2026-04-22 12:35 | 32.01442 | 34.87104 | 123 ft | 155 kts | 257° |
| 2026-04-22 12:36 | 32.01246 | 34.85866 | 529 ft | 159 kts | 263° |
| 2026-04-22 12:36 | 32.00991 | 34.84574 | 1084 ft | 163 kts | 261° |
| 2026-04-22 12:36 | 32.00693 | 34.83082 | 1414 ft | 206 kts | 261° |
| 2026-04-22 12:36 | 32.00373 | 34.81384 | 2233 ft | 216 kts | 259° |
| 2026-04-22 12:37 | 31.99998 | 34.79548 | 2813 ft | 243 kts | 256° |
| 2026-04-22 12:37 | 31.99566 | 34.77539 | 3372 ft | 261 kts | 256° |
| 2026-04-22 12:37 | 31.99303 | 34.75394 | 4193 ft | 266 kts | 271° |
| 2026-04-22 12:37 | 31.99633 | 34.73238 | 5097 ft | 269 kts | 290° |
| 2026-04-22 12:38 | 32.00297 | 34.71168 | 6052 ft | 269 kts | 290° |
| 2026-04-22 12:38 | 32.00955 | 34.69100 | 6971 ft | 271 kts | 290° |
| 2026-04-22 12:38 | 32.01609 | 34.67016 | 7476 ft | 275 kts | 289° |
| 2026-04-22 12:38 | 32.02266 | 34.64890 | 7918 ft | 280 kts | 287° |
| 2026-04-22 12:39 | 32.02776 | 34.62689 | 8014 ft | 276 kts | 289° |
| 2026-04-22 12:39 | 32.05395 | 34.59492 | 8223 ft | 281 kts | 326° |
| 2026-04-22 12:39 | 32.07051 | 34.58276 | 8321 ft | 280 kts | 326° |
| 2026-04-22 12:40 | 32.08693 | 34.57065 | 8440 ft | 282 kts | 326° |
| 2026-04-22 12:40 | 32.10350 | 34.55838 | 8943 ft | 285 kts | 326° |
| 2026-04-22 12:40 | 32.10939 | 34.55401 | 9272 ft | 285 kts | 326° |
| 2026-04-22 12:40 | 32.11917 | 34.54676 | 9824 ft | 285 kts | 325° |
| 2026-04-22 12:41 | 32.13616 | 34.53414 | 10470 ft | 296 kts | 325° |
| 2026-04-22 12:41 | 32.15400 | 34.52083 | 10728 ft | 318 kts | 326° |
| 2026-04-22 12:41 | 32.17327 | 34.50647 | 11065 ft | 335 kts | 326° |
| 2026-04-22 12:41 | 32.19322 | 34.49164 | 11796 ft | 339 kts | 326° |
| 2026-04-22 12:42 | 32.21326 | 34.47676 | 12576 ft | 342 kts | 326° |
| 2026-04-22 12:42 | 32.23346 | 34.46173 | 13350 ft | 345 kts | 326° |
| 2026-04-22 12:42 | 32.25387 | 34.44654 | 14065 ft | 348 kts | 326° |
| 2026-04-22 12:42 | 32.27450 | 34.43117 | 14734 ft | 351 kts | 326° |
| 2026-04-22 12:43 | 32.29527 | 34.41569 | 15397 ft | 355 kts | 326° |
| 2026-04-22 12:43 | 32.31627 | 34.40002 | 16054 ft | 358 kts | 326° |
| 2026-04-22 12:43 | 32.33746 | 34.38422 | 16706 ft | 361 kts | 326° |
| 2026-04-22 12:43 | 32.35878 | 34.36830 | 17344 ft | 364 kts | 326° |
| 2026-04-22 12:44 | 32.38005 | 34.35241 | 17956 ft | 367 kts | 325° |
| 2026-04-22 12:44 | 32.40181 | 34.33615 | 18559 ft | 371 kts | 325° |
| 2026-04-22 12:44 | 32.42377 | 34.31973 | 19125 ft | 373 kts | 325° |
| 2026-04-22 12:44 | 32.44583 | 34.30322 | 19677 ft | 376 kts | 325° |
| 2026-04-22 12:45 | 32.46812 | 34.28653 | 20228 ft | 379 kts | 325° |
| 2026-04-22 12:45 | 32.49047 | 34.26979 | 20779 ft | 382 kts | 325° |
| 2026-04-22 12:45 | 32.51301 | 34.25292 | 21302 ft | 385 kts | 326° |
| 2026-04-22 12:45 | 32.53683 | 34.23859 | 21797 ft | 392 kts | 335° |
| 2026-04-22 12:46 | 32.56303 | 34.22888 | 21984 ft | 397 kts | 345° |
| 2026-04-22 12:46 | 32.59049 | 34.22445 | 22017 ft | 400 kts | 352° |
| 2026-04-22 12:46 | 32.61820 | 34.22151 | 22014 ft | 399 kts | 352° |
| 2026-04-22 12:46 | 32.64584 | 34.21845 | 22018 ft | 399 kts | 351° |
| 2026-04-22 12:47 | 32.67348 | 34.21531 | 22020 ft | 399 kts | 351° |
| 2026-04-22 12:47 | 32.70113 | 34.21216 | 22018 ft | 399 kts | 351° |
| 2026-04-22 12:47 | 32.72873 | 34.20900 | 22022 ft | 399 kts | 351° |
| 2026-04-22 12:47 | 32.75643 | 34.20584 | 22016 ft | 399 kts | 351° |
| 2026-04-22 12:48 | 32.78407 | 34.20268 | 22018 ft | 399 kts | 351° |
| 2026-04-22 12:48 | 32.81170 | 34.19952 | 22017 ft | 399 kts | 351° |
| 2026-04-22 12:48 | 32.83931 | 34.19636 | 22020 ft | 399 kts | 351° |
| 2026-04-22 12:48 | 32.86686 | 34.19321 | 22018 ft | 399 kts | 351° |
| 2026-04-22 12:49 | 32.89460 | 34.19003 | 22019 ft | 399 kts | 351° |
| 2026-04-22 12:49 | 32.92224 | 34.18686 | 22020 ft | 398 kts | 351° |
| 2026-04-22 12:49 | 32.94985 | 34.18370 | 22018 ft | 398 kts | 351° |
| 2026-04-22 12:49 | 32.97744 | 34.18053 | 22020 ft | 398 kts | 351° |
| 2026-04-22 12:50 | 33.00507 | 34.17736 | 22020 ft | 398 kts | 351° |
| 2026-04-22 12:50 | 33.03263 | 34.17419 | 22020 ft | 398 kts | 351° |
| 2026-04-22 12:50 | 33.06028 | 34.17102 | 22018 ft | 398 kts | 351° |
| 2026-04-22 12:50 | 33.08749 | 34.16789 | 22021 ft | 398 kts | 351° |
| 2026-04-22 12:51 | 33.11507 | 34.16472 | 22020 ft | 398 kts | 351° |
| 2026-04-22 12:51 | 33.14271 | 34.16153 | 22018 ft | 398 kts | 351° |
| 2026-04-22 12:51 | 33.17039 | 34.15835 | 22020 ft | 398 kts | 351° |
| 2026-04-22 12:51 | 33.19795 | 34.15517 | 22020 ft | 398 kts | 351° |
| 2026-04-22 12:52 | 33.22548 | 34.15199 | 22019 ft | 398 kts | 351° |
| 2026-04-22 12:52 | 33.25279 | 34.14884 | 22023 ft | 398 kts | 351° |
| 2026-04-22 12:52 | 33.28033 | 34.14566 | 22021 ft | 398 kts | 351° |
| 2026-04-22 12:52 | 33.30794 | 34.14247 | 22020 ft | 398 kts | 351° |
| 2026-04-22 12:53 | 33.33548 | 34.13929 | 22021 ft | 397 kts | 351° |
| 2026-04-22 12:53 | 33.36300 | 34.13611 | 22023 ft | 397 kts | 351° |
| 2026-04-22 12:53 | 33.39052 | 34.13292 | 22021 ft | 397 kts | 351° |
| 2026-04-22 12:53 | 33.41808 | 34.12973 | 22019 ft | 397 kts | 351° |
| 2026-04-22 12:54 | 33.44558 | 34.12654 | 22023 ft | 397 kts | 351° |
| 2026-04-22 12:54 | 33.47308 | 34.12336 | 22022 ft | 396 kts | 351° |
| 2026-04-22 12:54 | 33.50001 | 34.12025 | 22019 ft | 383 kts | 351° |
| 2026-04-22 12:54 | 33.52676 | 34.11715 | 22020 ft | 393 kts | 351° |
| 2026-04-22 12:55 | 33.55428 | 34.11391 | 22021 ft | 399 kts | 351° |
| 2026-04-22 12:55 | 33.58181 | 34.11071 | 22020 ft | 396 kts | 351° |
| 2026-04-22 12:55 | 33.60926 | 34.10753 | 22019 ft | 396 kts | 351° |
| 2026-04-22 12:55 | 33.63674 | 34.10433 | 22020 ft | 397 kts | 351° |
| 2026-04-22 12:56 | 33.66422 | 34.10114 | 22022 ft | 397 kts | 351° |
| 2026-04-22 12:56 | 33.69164 | 34.09794 | 22022 ft | 396 kts | 351° |
| 2026-04-22 12:56 | 33.71913 | 34.09474 | 22021 ft | 397 kts | 351° |
| 2026-04-22 12:56 | 33.74621 | 34.09158 | 22021 ft | 396 kts | 351° |
| 2026-04-22 12:57 | 33.77347 | 34.08724 | 22020 ft | 393 kts | 342° |
| 2026-04-22 12:57 | 33.79866 | 34.07529 | 22022 ft | 388 kts | 327° |
| 2026-04-22 12:57 | 33.81983 | 34.05572 | 22023 ft | 383 kts | 311° |
| 2026-04-22 12:57 | 33.83562 | 34.03019 | 22024 ft | 380 kts | 297° |
| 2026-04-22 12:58 | 33.84650 | 34.00130 | 22018 ft | 379 kts | 292° |
| 2026-04-22 12:58 | 33.85695 | 33.97225 | 22024 ft | 379 kts | 292° |
| 2026-04-22 12:58 | 33.86748 | 33.94308 | 22021 ft | 379 kts | 292° |
| 2026-04-22 12:58 | 33.87798 | 33.91401 | 22022 ft | 379 kts | 292° |
| 2026-04-22 12:59 | 33.88848 | 33.88491 | 22017 ft | 379 kts | 292° |
| 2026-04-22 12:59 | 33.89896 | 33.85587 | 22024 ft | 379 kts | 292° |
| 2026-04-22 12:59 | 33.90945 | 33.82679 | 22020 ft | 379 kts | 292° |
| 2026-04-22 12:59 | 33.91992 | 33.79770 | 22020 ft | 379 kts | 292° |
| 2026-04-22 13:00 | 33.93038 | 33.76863 | 22014 ft | 378 kts | 292° |
| 2026-04-22 13:00 | 33.94082 | 33.73958 | 22021 ft | 378 kts | 292° |
| 2026-04-22 13:00 | 33.95125 | 33.71054 | 22021 ft | 378 kts | 292° |
| 2026-04-22 13:00 | 33.96166 | 33.68153 | 22019 ft | 378 kts | 292° |
| 2026-04-22 13:01 | 33.97209 | 33.65244 | 22023 ft | 378 kts | 292° |
| 2026-04-22 13:01 | 33.98250 | 33.62337 | 22017 ft | 378 kts | 292° |
| 2026-04-22 13:01 | 33.99288 | 33.59436 | 22016 ft | 378 kts | 292° |
| 2026-04-22 13:01 | 34.00330 | 33.56522 | 22020 ft | 378 kts | 292° |
| 2026-04-22 13:02 | 34.01369 | 33.53614 | 22020 ft | 378 kts | 292° |
| 2026-04-22 13:02 | 34.02405 | 33.50712 | 22019 ft | 378 kts | 292° |
| 2026-04-22 13:02 | 34.03442 | 33.47803 | 22019 ft | 378 kts | 292° |
| 2026-04-22 13:02 | 34.04480 | 33.44890 | 21871 ft | 378 kts | 292° |
| 2026-04-22 13:03 | 34.05515 | 33.41983 | 21610 ft | 376 kts | 292° |
| 2026-04-22 13:03 | 34.06542 | 33.39093 | 21351 ft | 373 kts | 292° |
| 2026-04-22 13:03 | 34.07563 | 33.36221 | 21096 ft | 372 kts | 292° |
| 2026-04-22 13:03 | 34.08580 | 33.33358 | 20843 ft | 371 kts | 292° |
| 2026-04-22 13:04 | 34.09595 | 33.30497 | 20600 ft | 370 kts | 292° |
| 2026-04-22 13:04 | 34.10605 | 33.27645 | 20348 ft | 369 kts | 292° |
| 2026-04-22 13:04 | 34.11612 | 33.24804 | 20101 ft | 368 kts | 292° |
| 2026-04-22 13:04 | 34.12613 | 33.21974 | 19859 ft | 367 kts | 292° |
| 2026-04-22 13:05 | 34.13612 | 33.19149 | 19618 ft | 365 kts | 292° |
| 2026-04-22 13:05 | 34.14606 | 33.16333 | 19377 ft | 364 kts | 292° |
| 2026-04-22 13:05 | 34.15569 | 33.13604 | 19145 ft | 363 kts | 292° |
| 2026-04-22 13:05 | 34.16585 | 33.10722 | 18899 ft | 362 kts | 292° |
| 2026-04-22 13:06 | 34.17565 | 33.07937 | 18668 ft | 361 kts | 292° |
| 2026-04-22 13:06 | 34.18532 | 33.05190 | 18437 ft | 360 kts | 292° |
| 2026-04-22 13:06 | 34.19509 | 33.02410 | 18186 ft | 359 kts | 292° |
| 2026-04-22 13:06 | 34.20481 | 32.99644 | 17916 ft | 357 kts | 292° |
| 2026-04-22 13:07 | 34.21449 | 32.96885 | 17471 ft | 357 kts | 292° |
| 2026-04-22 13:07 | 34.22413 | 32.94136 | 17001 ft | 354 kts | 292° |
| 2026-04-22 13:07 | 34.23364 | 32.91421 | 16524 ft | 349 kts | 292° |
| 2026-04-22 13:07 | 34.24305 | 32.88732 | 16055 ft | 345 kts | 292° |
| 2026-04-22 13:08 | 34.25235 | 32.86074 | 15585 ft | 341 kts | 292° |
| 2026-04-22 13:08 | 34.26154 | 32.83443 | 15119 ft | 338 kts | 292° |
| 2026-04-22 13:08 | 34.27065 | 32.80835 | 14664 ft | 335 kts | 292° |
| 2026-04-22 13:08 | 34.27965 | 32.78254 | 14209 ft | 332 kts | 292° |
| 2026-04-22 13:09 | 34.28858 | 32.75693 | 13756 ft | 329 kts | 292° |
| 2026-04-22 13:09 | 34.29766 | 32.73173 | 13289 ft | 325 kts | 296° |
| 2026-04-22 13:09 | 34.30905 | 32.70830 | 12850 ft | 322 kts | 302° |
| 2026-04-22 13:09 | 34.32130 | 32.68580 | 12412 ft | 318 kts | 302° |
| 2026-04-22 13:10 | 34.33337 | 32.66344 | 11979 ft | 315 kts | 302° |
| 2026-04-22 13:10 | 34.34524 | 32.64135 | 11552 ft | 312 kts | 302° |
| 2026-04-22 13:10 | 34.35702 | 32.61939 | 11127 ft | 310 kts | 302° |
| 2026-04-22 13:10 | 34.36477 | 32.60492 | 10846 ft | 308 kts | 302° |
| 2026-04-22 13:11 | 34.37947 | 32.57747 | 10378 ft | 303 kts | 302° |
| 2026-04-22 13:11 | 34.39065 | 32.55660 | 10202 ft | 288 kts | 302° |
| 2026-04-22 13:11 | 34.40140 | 32.53653 | 9734 ft | 282 kts | 302° |
| 2026-04-22 13:11 | 34.41189 | 32.51691 | 9409 ft | 273 kts | 302° |
| 2026-04-22 13:12 | 34.42231 | 32.49741 | 9272 ft | 279 kts | 302° |
| 2026-04-22 13:12 | 34.43275 | 32.47785 | 9154 ft | 276 kts | 302° |
| 2026-04-22 13:12 | 34.44325 | 32.45818 | 9048 ft | 278 kts | 302° |
| 2026-04-22 13:12 | 34.45375 | 32.43850 | 8719 ft | 279 kts | 302° |
| 2026-04-22 13:13 | 34.46439 | 32.41854 | 8073 ft | 287 kts | 302° |
| 2026-04-22 13:13 | 34.47689 | 32.39892 | 7097 ft | 305 kts | 316° |
| 2026-04-22 13:13 | 34.49558 | 32.38489 | 5800 ft | 333 kts | 336° |
| 2026-04-22 13:13 | 34.51804 | 32.37545 | 4983 ft | 342 kts | 342° |
| 2026-04-22 13:14 | 34.54017 | 32.36777 | 4730 ft | 321 kts | 343° |
| 2026-04-22 13:14 | 34.56100 | 32.36067 | 4533 ft | 301 kts | 343° |
| 2026-04-22 13:14 | 34.58055 | 32.35378 | 4229 ft | 286 kts | 342° |
| 2026-04-22 13:14 | 34.59927 | 32.34695 | 3841 ft | 277 kts | 341° |
| 2026-04-22 13:15 | 34.61769 | 32.34009 | 3215 ft | 278 kts | 341° |
| 2026-04-22 13:15 | 34.63626 | 32.33307 | 2496 ft | 282 kts | 341° |
| 2026-04-22 13:15 | 34.65428 | 32.32625 | 2213 ft | 267 kts | 341° |
| 2026-04-22 13:15 | 34.67180 | 32.31962 | 1851 ft | 259 kts | 341° |
| 2026-04-22 13:16 | 34.68876 | 32.31320 | 1730 ft | 256 kts | 341° |
| 2026-04-22 13:16 | 34.70577 | 32.30676 | 1702 ft | 256 kts | 341° |
| 2026-04-22 13:16 | 34.72282 | 32.30032 | 1704 ft | 256 kts | 341° |
| 2026-04-22 13:16 | 34.74036 | 32.29840 | 1697 ft | 251 kts | 8° |
| 2026-04-22 13:17 | 34.75503 | 32.30647 | 1690 ft | 219 kts | 42° |
| 2026-04-22 13:17 | 34.76243 | 32.32097 | 1720 ft | 187 kts | 75° |
| 2026-04-22 13:17 | 34.76313 | 32.33536 | 1683 ft | 157 kts | 99° |
| 2026-04-22 13:17 | 34.76010 | 32.34740 | 1711 ft | 151 kts | 116° |
| 2026-04-22 13:18 | 34.75600 | 32.35936 | 1697 ft | 152 kts | 113° |
| 2026-04-22 13:18 | 34.75349 | 32.36748 | 1707 ft | 153 kts | 112° |
| 2026-04-22 13:18 | 34.74986 | 32.37971 | 1712 ft | 153 kts | 112° |
| 2026-04-22 13:18 | 34.74624 | 32.39194 | 1673 ft | 151 kts | 112° |
| 2026-04-22 13:19 | 34.74263 | 32.40397 | 1322 ft | 157 kts | 112° |
| 2026-04-22 13:19 | 34.73880 | 32.41627 | 1012 ft | 150 kts | 112° |
| 2026-04-22 13:19 | 34.73512 | 32.42790 | 756 ft | 148 kts | 111° |
| 2026-04-22 13:19 | 34.73152 | 32.43998 | 596 ft | 156 kts | 109° |
| 2026-04-22 13:20 | 34.72793 | 32.45255 | 455 ft | 158 kts | 108° |
| 2026-04-22 13:20 | 34.72419 | 32.46496 | 229 ft | 157 kts | 110° |
| 2026-04-22 13:20 | 34.72045 | 32.47705 | 51 ft | 149 kts | 110° |
| 2026-04-22 13:20 | 34.71759 | 32.48670 | 43 ft | 80 kts | 110° |
| 2026-04-22 13:21 | 34.71601 | 32.49025 | 44 ft | 9 kts | 184° |
| 2026-04-22 13:21 | 34.71548 | 32.48986 | 41 ft | 11 kts | 213° |
| 2026-04-22 13:21 | 34.71500 | 32.48911 | 43 ft | 12 kts | 244° |
| 2026-04-22 13:21 | 34.71463 | 32.48825 | 41 ft | 3 kts | 228° |
| 2026-04-22 13:22 | 34.71447 | 32.48825 | 43 ft | 3 kts | 178° |
| 2026-04-22 13:22 | 34.71413 | 32.48826 | 43 ft | 6 kts | 175° |
| 2026-04-22 13:22 | 34.71374 | 32.48842 | 43 ft | 0 kts | 157° |